createdAt,value
2022-09-30T00:01:13.033Z,5.70
2022-09-30T00:03:40.815Z,6.13
2022-09-30T00:06:09.331Z,5.50
2022-09-30T00:08:38.038Z,5.73
2022-09-30T00:11:10.044Z,5.57
2022-09-30T00:13:40.317Z,5.30
2022-09-30T00:16:10.377Z,5.43
2022-09-30T00:18:38.905Z,5.60
2022-09-30T00:21:08.317Z,5.90
2022-09-30T00:23:36.600Z,5.50
2022-09-30T00:26:12.134Z,5.90
2022-09-30T00:28:41.151Z,5.70
2022-09-30T00:31:12.231Z,5.17
2022-09-30T00:33:41.260Z,4.97
2022-09-30T00:36:09.478Z,5.63
2022-09-30T00:38:37.410Z,5.40
2022-09-30T00:41:05.606Z,5.20
2022-09-30T00:43:51.438Z,5.33
2022-09-30T00:46:28.083Z,5.53
2022-09-30T00:48:57.344Z,5.37
2022-09-30T00:51:31.094Z,5.07
2022-09-30T00:54:02.076Z,6.03
2022-09-30T00:56:32.890Z,5.10
2022-09-30T00:59:06.766Z,5.13
2022-09-30T01:01:36.112Z,5.03
2022-09-30T01:04:10.807Z,5.20
2022-09-30T01:06:38.625Z,4.87
2022-09-30T01:09:06.505Z,5.50
2022-09-30T01:11:34.338Z,5.40
2022-09-30T01:14:06.817Z,5.00
2022-09-30T01:16:47.356Z,5.07
2022-09-30T01:19:31.056Z,5.17
2022-09-30T01:22:15.078Z,4.73
2022-09-30T01:25:17.182Z,5.50
2022-09-30T01:28:09.757Z,4.90
2022-09-30T01:30:56.582Z,5.07
2022-09-30T01:33:36.996Z,4.80
2022-09-30T01:36:14.696Z,5.10
2022-09-30T01:38:50.932Z,4.67
2022-09-30T01:41:28.149Z,4.87
2022-09-30T01:44:05.328Z,4.97
2022-09-30T01:46:44.183Z,4.53
2022-09-30T01:49:21.619Z,4.80
2022-09-30T01:51:56.681Z,4.37
2022-09-30T01:54:31.677Z,5.13
2022-09-30T01:57:04.978Z,4.80
2022-09-30T01:59:37.357Z,6.43
2022-09-30T02:02:13.480Z,6.57
2022-09-30T02:04:47.524Z,9.03
2022-09-30T02:07:22.362Z,10.50
2022-09-30T02:09:53.517Z,9.70
2022-09-30T02:12:25.700Z,10.97
2022-09-30T02:14:58.998Z,9.37
2022-09-30T02:17:33.151Z,9.90
2022-09-30T02:20:06.318Z,9.07
2022-09-30T02:22:43.162Z,8.30
2022-09-30T02:25:17.429Z,6.47
2022-09-30T02:27:49.441Z,8.47
2022-09-30T02:30:17.718Z,9.80
2022-09-30T02:32:52.048Z,9.17
2022-09-30T02:35:24.643Z,9.10
2022-09-30T02:37:55.442Z,9.33
2022-09-30T02:40:28.363Z,8.60
2022-09-30T02:42:56.657Z,7.27
2022-09-30T02:45:25.588Z,7.17
2022-09-30T02:48:12.235Z,6.77
2022-09-30T02:50:48.213Z,5.87
2022-09-30T02:53:24.281Z,5.70
2022-09-30T02:56:13.592Z,6.57
2022-09-30T02:58:43.364Z,7.20
2022-09-30T03:01:13.544Z,6.77
2022-09-30T03:03:46.172Z,7.43
2022-09-30T03:06:14.671Z,8.30
2022-09-30T03:08:42.585Z,8.93
2022-09-30T03:11:16.189Z,8.73
2022-09-30T03:14:03.744Z,8.30
2022-09-30T03:16:46.743Z,8.00
2022-09-30T03:19:31.454Z,7.60
2022-09-30T03:22:20.959Z,7.10
2022-09-30T03:25:16.744Z,7.50
2022-09-30T03:27:56.180Z,7.03
2022-09-30T03:30:27.061Z,7.20
2022-09-30T03:33:06.901Z,7.07
2022-09-30T03:35:49.018Z,7.23
2022-09-30T03:38:26.941Z,7.13
2022-09-30T03:41:01.962Z,6.97
2022-09-30T03:43:35.276Z,7.03
2022-09-30T03:46:07.629Z,6.80
2022-09-30T03:48:38.270Z,6.80
2022-09-30T03:51:09.943Z,6.93
2022-09-30T03:53:41.801Z,6.63
2022-09-30T03:56:10.209Z,6.43
2022-09-30T03:58:42.150Z,6.03
2022-09-30T04:01:19.242Z,6.07
2022-09-30T04:03:47.761Z,6.03
2022-09-30T04:06:16.859Z,6.30
2022-09-30T04:08:44.944Z,5.90
2022-09-30T04:11:13.107Z,5.97
2022-09-30T04:13:40.911Z,5.87
2022-09-30T04:16:09.403Z,6.37
2022-09-30T04:18:38.339Z,6.43
2022-09-30T04:21:07.601Z,5.90
2022-09-30T04:23:37.710Z,5.93
2022-09-30T04:26:06.607Z,6.50
2022-09-30T04:28:35.201Z,5.90
2022-09-30T04:31:03.773Z,5.77
2022-09-30T04:33:31.704Z,5.60
2022-09-30T04:36:00.522Z,6.20
2022-09-30T04:38:29.181Z,5.97
2022-09-30T04:40:59.094Z,5.47
2022-09-30T04:43:26.875Z,6.03
2022-09-30T04:45:54.702Z,5.70
2022-09-30T04:48:23.269Z,5.63
2022-09-30T04:50:51.732Z,6.20
2022-09-30T04:53:19.935Z,6.03
2022-09-30T04:55:48.029Z,5.77
2022-09-30T04:58:17.308Z,5.53
2022-09-30T05:00:45.214Z,5.47
2022-09-30T05:03:13.066Z,6.00
2022-09-30T05:05:41.852Z,5.73
2022-09-30T05:08:10.470Z,5.80
2022-09-30T05:10:39.091Z,5.67
2022-09-30T05:13:07.892Z,5.50
2022-09-30T05:15:37.300Z,5.50
2022-09-30T05:18:06.022Z,5.40
2022-09-30T05:20:33.855Z,5.37
2022-09-30T05:23:01.632Z,5.37
2022-09-30T05:25:29.417Z,5.23
2022-09-30T05:27:57.244Z,5.43
2022-09-30T05:30:25.350Z,5.50
2022-09-30T05:32:54.505Z,5.70
2022-09-30T05:35:22.261Z,5.83
2022-09-30T05:37:49.983Z,5.20
2022-09-30T05:40:17.953Z,5.90
2022-09-30T05:42:46.358Z,5.53
2022-09-30T05:45:14.578Z,5.87
2022-09-30T05:47:42.350Z,5.33
2022-09-30T05:50:11.660Z,5.97
2022-09-30T05:52:39.384Z,5.63
2022-09-30T05:55:07.599Z,5.57
2022-09-30T05:57:36.503Z,6.37
2022-09-30T06:00:04.993Z,5.57
2022-09-30T06:02:33.570Z,5.67
2022-09-30T06:05:01.703Z,5.50
2022-09-30T06:07:31.998Z,5.73
2022-09-30T06:09:59.744Z,5.47
2022-09-30T06:12:28.789Z,5.47
2022-09-30T06:14:56.837Z,6.10
2022-09-30T06:17:25.044Z,6.30
2022-09-30T06:19:52.796Z,6.00
2022-09-30T06:22:20.800Z,6.00
2022-09-30T06:24:54.818Z,6.47
2022-09-30T06:27:23.164Z,5.93
2022-09-30T06:29:50.913Z,6.13
2022-09-30T06:32:18.680Z,6.10
2022-09-30T06:34:46.735Z,5.83
2022-09-30T06:37:16.046Z,6.53
2022-09-30T06:39:43.757Z,6.33
2022-09-30T06:42:12.882Z,7.30
2022-09-30T06:44:50.137Z,6.77
2022-09-30T06:47:25.283Z,7.20
2022-09-30T06:49:58.695Z,6.73
2022-09-30T06:52:27.316Z,7.23
2022-09-30T06:54:56.718Z,7.10
2022-09-30T06:57:27.814Z,8.30
2022-09-30T06:59:56.220Z,8.27
2022-09-30T07:02:24.072Z,7.47
2022-09-30T07:04:51.826Z,7.83
2022-09-30T07:07:22.268Z,8.70
2022-09-30T07:09:50.213Z,8.40
2022-09-30T07:12:18.123Z,7.60
2022-09-30T07:14:48.011Z,7.90
2022-09-30T07:17:15.764Z,7.80
2022-09-30T07:19:43.547Z,7.80
2022-09-30T07:22:30.032Z,7.80
2022-09-30T07:24:58.945Z,6.97
2022-09-30T07:27:27.491Z,8.20
2022-09-30T07:30:08.706Z,8.40
2022-09-30T07:32:40.050Z,8.07
2022-09-30T07:35:08.434Z,8.27
2022-09-30T07:37:37.079Z,8.20
2022-09-30T07:40:06.274Z,7.67
2022-09-30T07:42:34.614Z,8.10
2022-09-30T07:45:04.337Z,8.70
2022-09-30T07:47:32.204Z,7.87
2022-09-30T07:50:00.471Z,7.67
2022-09-30T07:52:28.350Z,7.80
2022-09-30T07:54:56.187Z,7.67
2022-09-30T07:57:24.043Z,8.87
2022-09-30T07:59:51.861Z,8.27
2022-09-30T08:02:21.187Z,9.17
2022-09-30T08:04:49.129Z,9.20
2022-09-30T08:07:18.889Z,8.90
2022-09-30T08:09:46.825Z,9.50
2022-09-30T08:12:14.703Z,8.87
2022-09-30T08:14:44.623Z,9.50
2022-09-30T08:17:12.453Z,9.50
2022-09-30T08:19:44.579Z,8.70
2022-09-30T08:22:13.968Z,8.90
2022-09-30T08:24:41.966Z,9.57
2022-09-30T08:27:09.777Z,9.77
2022-09-30T08:29:56.793Z,9.60
2022-09-30T08:32:27.067Z,9.73
2022-09-30T08:34:56.263Z,10.93
2022-09-30T08:37:24.140Z,10.27
2022-09-30T08:39:51.953Z,10.80
2022-09-30T08:42:37.951Z,11.07
2022-09-30T08:45:15.204Z,11.27
2022-09-30T08:47:54.268Z,11.10
2022-09-30T08:50:31.806Z,11.77
2022-09-30T08:53:02.650Z,11.80
2022-09-30T08:55:37.958Z,12.80
2022-09-30T08:58:07.815Z,13.40
2022-09-30T09:00:36.833Z,13.17
2022-09-30T09:03:05.176Z,13.73
2022-09-30T09:05:51.618Z,13.80
2022-09-30T09:08:30.472Z,14.57
2022-09-30T09:11:05.940Z,13.97
2022-09-30T09:13:46.718Z,14.10
2022-09-30T09:16:23.212Z,14.90
2022-09-30T09:18:59.873Z,14.07
2022-09-30T09:21:47.226Z,13.87
2022-09-30T09:24:17.208Z,14.00
2022-09-30T09:26:45.437Z,13.10
2022-09-30T09:29:36.939Z,12.37
2022-09-30T09:32:12.329Z,12.43
2022-09-30T09:34:41.283Z,13.30
2022-09-30T09:37:22.246Z,13.63
2022-09-30T09:40:03.892Z,13.37
2022-09-30T09:42:47.529Z,12.27
2022-09-30T09:45:27.214Z,12.83
2022-09-30T09:47:57.281Z,11.97
2022-09-30T09:50:32.625Z,12.30
2022-09-30T09:53:22.143Z,12.93
2022-09-30T09:55:55.031Z,13.07
2022-09-30T09:58:22.805Z,12.93
2022-09-30T10:01:19.413Z,12.60
2022-09-30T10:03:48.366Z,13.50
2022-09-30T10:06:16.228Z,12.20
2022-09-30T10:08:56.631Z,12.10
2022-09-30T10:11:26.387Z,13.70
2022-09-30T10:13:58.011Z,13.60
2022-09-30T10:16:33.041Z,13.53
2022-09-30T10:19:03.916Z,15.57
2022-09-30T10:21:33.762Z,15.50
2022-09-30T10:24:21.683Z,15.13
2022-09-30T10:26:49.590Z,15.03
2022-09-30T10:29:27.771Z,16.30
2022-09-30T10:31:58.974Z,16.27
2022-09-30T10:34:32.055Z,16.20
2022-09-30T10:37:02.737Z,14.77
2022-09-30T10:39:35.186Z,15.20
2022-09-30T10:42:04.730Z,15.60
2022-09-30T10:44:32.668Z,15.67
2022-09-30T10:47:03.813Z,15.23
2022-09-30T10:49:36.878Z,16.80
2022-09-30T10:52:05.698Z,16.10
2022-09-30T10:54:50.293Z,15.37
2022-09-30T10:57:23.554Z,14.77
2022-09-30T10:59:53.945Z,14.20
2022-09-30T11:02:31.827Z,14.05
2022-09-30T11:05:06.762Z,12.87
2022-09-30T11:07:41.973Z,13.63
2022-09-30T11:10:26.419Z,12.37
2022-09-30T11:13:01.172Z,12.65
2022-09-30T11:15:33.823Z,12.73
2022-09-30T11:18:06.807Z,13.13
2022-09-30T11:20:40.326Z,12.50
2022-09-30T11:23:19.918Z,12.40
2022-09-30T11:25:57.514Z,10.75
2022-09-30T11:28:53.353Z,12.70
2022-09-30T11:31:31.282Z,11.02
2022-09-30T11:34:15.262Z,12.38
2022-09-30T11:36:53.742Z,11.98
2022-09-30T11:39:46.985Z,10.80
2022-09-30T11:42:26.461Z,10.48
2022-09-30T11:45:03.910Z,10.65
2022-09-30T11:47:53.622Z,10.75
2022-09-30T11:50:47.250Z,10.32
2022-09-30T11:53:24.784Z,11.25
2022-09-30T11:56:16.929Z,9.90
2022-09-30T11:58:50.898Z,8.27
2022-09-30T12:01:24.711Z,7.65
2022-09-30T12:04:00.601Z,9.90
2022-09-30T12:06:34.423Z,8.95
2022-09-30T12:09:09.493Z,8.70
2022-09-30T12:11:45.090Z,7.45
2022-09-30T12:14:21.972Z,6.97
2022-09-30T12:16:51.478Z,6.80
2022-09-30T12:19:29.398Z,6.75
2022-09-30T12:22:03.172Z,6.30
2022-09-30T12:24:36.843Z,5.97
2022-09-30T12:27:05.679Z,7.15
2022-09-30T12:29:57.693Z,6.13
2022-09-30T12:32:53.188Z,6.15
2022-09-30T12:35:39.096Z,6.10
2022-09-30T12:38:21.535Z,6.32
2022-09-30T12:41:02.918Z,5.70
2022-09-30T12:44:02.958Z,6.20
2022-09-30T12:46:50.179Z,6.22
2022-09-30T12:49:23.562Z,6.45
2022-09-30T12:51:55.542Z,5.70
2022-09-30T12:54:28.050Z,5.35
2022-09-30T12:56:59.399Z,5.30
2022-09-30T12:59:31.612Z,5.53
2022-09-30T13:02:02.484Z,6.13
2022-09-30T13:04:36.093Z,5.05
2022-09-30T13:07:18.522Z,5.43
2022-09-30T13:10:07.690Z,5.75
2022-09-30T13:12:45.657Z,5.13
2022-09-30T13:15:38.941Z,4.93
2022-09-30T13:18:45.997Z,4.28
2022-09-30T13:21:27.078Z,4.25
2022-09-30T13:23:56.233Z,4.25
2022-09-30T13:26:35.313Z,3.85
2022-09-30T13:29:29.412Z,3.97
2022-09-30T13:32:05.229Z,4.60
2022-09-30T13:34:35.489Z,4.07
2022-09-30T13:37:06.088Z,4.30
2022-09-30T13:39:47.579Z,3.90
2022-09-30T13:42:24.579Z,4.70
2022-09-30T13:45:03.120Z,4.88
2022-09-30T13:47:35.776Z,4.82
2022-09-30T13:50:13.997Z,4.20
2022-09-30T13:52:46.356Z,4.43
2022-09-30T13:55:21.430Z,4.28
2022-09-30T13:58:03.325Z,5.20
2022-09-30T14:00:47.505Z,5.57
2022-09-30T14:03:38.767Z,4.85
2022-09-30T14:06:16.164Z,4.57
2022-09-30T14:09:20.562Z,5.13
2022-09-30T14:12:01.922Z,4.60
2022-09-30T14:15:02.361Z,5.72
2022-09-30T14:18:10.442Z,5.15
2022-09-30T14:20:50.156Z,5.85
2022-09-30T14:23:20.220Z,5.13
2022-09-30T14:25:58.269Z,5.30
2022-09-30T14:28:37.196Z,4.50
2022-09-30T14:31:13.212Z,5.43
2022-09-30T14:33:43.764Z,4.75
2022-09-30T14:36:15.816Z,5.47
2022-09-30T14:38:47.011Z,4.82
2022-09-30T14:41:21.150Z,4.88
2022-09-30T14:43:53.000Z,4.72
2022-09-30T14:46:30.433Z,4.65
2022-09-30T14:49:04.531Z,5.05
2022-09-30T14:51:38.297Z,4.38
2022-09-30T14:54:06.344Z,4.63
2022-09-30T14:56:37.185Z,4.45
2022-09-30T14:59:18.692Z,3.65
2022-09-30T15:01:49.367Z,4.05
2022-09-30T15:04:19.562Z,4.97
2022-09-30T15:06:50.726Z,4.25
2022-09-30T15:09:27.991Z,4.00
2022-09-30T15:11:59.035Z,3.95
2022-09-30T15:14:29.942Z,3.97
2022-09-30T15:17:02.538Z,4.20
2022-09-30T15:19:35.910Z,4.18
2022-09-30T15:22:05.992Z,4.63
2022-09-30T15:24:36.455Z,4.22
2022-09-30T15:27:07.368Z,4.00
2022-09-30T15:29:35.166Z,3.13
2022-09-30T15:32:05.764Z,3.95
2022-09-30T15:34:34.159Z,3.92
2022-09-30T15:37:06.841Z,3.80
2022-09-30T15:39:51.393Z,3.67
2022-09-30T15:42:32.238Z,3.30
2022-09-30T15:45:03.335Z,3.00
2022-09-30T15:47:31.366Z,3.05
2022-09-30T15:49:59.432Z,2.80
2022-09-30T15:52:39.632Z,2.60
2022-09-30T15:55:38.543Z,2.08
2022-09-30T15:58:33.851Z,2.22
2022-09-30T16:01:14.990Z,2.15
2022-09-30T16:03:50.357Z,2.28
2022-09-30T16:06:25.201Z,1.75
2022-09-30T16:09:00.964Z,1.88
2022-09-30T16:11:31.959Z,3.05
2022-09-30T16:14:03.116Z,2.15
2022-09-30T16:16:33.628Z,1.90
2022-09-30T16:19:02.406Z,1.95
2022-09-30T16:21:40.605Z,1.90
2022-09-30T16:24:47.700Z,2.35
2022-09-30T16:27:31.376Z,1.80
2022-09-30T16:30:01.425Z,2.20
2022-09-30T16:32:36.975Z,2.20
2022-09-30T16:35:05.694Z,2.23
2022-09-30T16:37:33.654Z,2.22
2022-09-30T16:40:16.294Z,2.10
2022-09-30T16:42:44.036Z,2.17
2022-09-30T16:45:15.089Z,2.07
2022-09-30T16:47:43.274Z,2.10
2022-09-30T16:50:21.512Z,1.70
2022-09-30T16:52:49.414Z,1.97
2022-09-30T16:55:17.388Z,2.20
2022-09-30T16:57:45.298Z,2.10
2022-09-30T17:00:19.439Z,2.00
2022-09-30T17:02:48.859Z,2.37
2022-09-30T17:05:19.733Z,2.07
2022-09-30T17:07:48.129Z,2.47
2022-09-30T17:10:21.279Z,2.27
2022-09-30T17:12:50.216Z,1.93
2022-09-30T17:15:20.394Z,2.23
2022-09-30T17:17:48.513Z,2.03
2022-09-30T17:20:16.458Z,2.30
2022-09-30T17:22:44.261Z,2.23
2022-09-30T17:25:12.136Z,2.20
2022-09-30T17:27:40.418Z,2.63
2022-09-30T17:30:09.823Z,2.80
2022-09-30T17:32:39.169Z,2.60
2022-09-30T17:35:08.333Z,2.50
2022-09-30T17:37:37.929Z,2.60
2022-09-30T17:40:28.522Z,2.43
2022-09-30T17:43:07.361Z,2.53
2022-09-30T17:45:35.531Z,2.37
2022-09-30T17:48:07.867Z,2.20
2022-09-30T17:50:36.152Z,2.30
2022-09-30T17:53:04.790Z,2.40
2022-09-30T17:55:33.710Z,2.97
2022-09-30T17:58:03.314Z,2.50
2022-09-30T18:00:31.635Z,3.10
2022-09-30T18:02:59.473Z,2.40
2022-09-30T18:05:28.619Z,2.23
2022-09-30T18:07:57.369Z,3.27
2022-09-30T18:10:25.267Z,2.90
2022-09-30T18:12:55.073Z,3.20
2022-09-30T18:15:23.828Z,3.40
2022-09-30T18:17:51.614Z,3.20
2022-09-30T18:20:21.976Z,3.13
2022-09-30T18:22:55.859Z,3.07
2022-09-30T18:25:23.905Z,3.40
2022-09-30T18:27:54.763Z,2.90
2022-09-30T18:30:22.801Z,3.40
2022-09-30T18:32:52.171Z,6.13
2022-09-30T18:35:22.916Z,6.20
2022-09-30T18:37:54.179Z,6.23
2022-09-30T18:40:25.839Z,8.23
2022-09-30T18:42:58.482Z,5.03
2022-09-30T18:45:26.750Z,5.47
2022-09-30T18:47:56.312Z,3.70
2022-09-30T18:50:24.989Z,3.60
2022-09-30T18:52:53.795Z,3.10
2022-09-30T18:55:23.440Z,3.20
2022-09-30T18:57:54.918Z,3.10
2022-09-30T19:00:22.846Z,3.13
2022-09-30T19:02:52.736Z,2.80
2022-09-30T19:05:21.411Z,2.70
2022-09-30T19:07:49.227Z,3.20
2022-09-30T19:10:17.199Z,3.20
2022-09-30T19:12:46.360Z,3.40
2022-09-30T19:15:16.346Z,3.17
2022-09-30T19:17:44.587Z,2.77
2022-09-30T19:20:16.176Z,2.83
2022-09-30T19:22:44.188Z,2.57
2022-09-30T19:25:12.793Z,2.70
2022-09-30T19:27:42.380Z,2.90
2022-09-30T19:30:14.050Z,3.17
2022-09-30T19:32:42.097Z,2.40
2022-09-30T19:35:12.059Z,2.80
2022-09-30T19:37:56.264Z,2.63
2022-09-30T19:40:28.021Z,3.10
2022-09-30T19:42:55.852Z,2.70
2022-09-30T19:45:26.397Z,2.53
2022-09-30T19:47:54.372Z,2.70
2022-09-30T19:50:22.220Z,2.40
2022-09-30T19:52:56.681Z,2.30
2022-09-30T19:55:25.457Z,2.10
2022-09-30T19:57:53.276Z,1.90
2022-09-30T20:00:21.279Z,2.00
2022-09-30T20:02:50.690Z,2.03
2022-09-30T20:05:18.950Z,2.10
2022-09-30T20:07:51.033Z,2.10
2022-09-30T20:10:21.393Z,1.70
2022-09-30T20:12:49.170Z,2.10
2022-09-30T20:15:34.665Z,2.03
2022-09-30T20:18:04.221Z,1.90
2022-09-30T20:20:40.063Z,2.50
2022-09-30T20:23:07.866Z,1.83
2022-09-30T20:25:36.257Z,2.30
2022-09-30T20:28:05.149Z,3.10
2022-09-30T20:30:34.949Z,2.40
2022-09-30T20:33:05.383Z,2.33
2022-09-30T20:35:36.611Z,2.33
2022-09-30T20:38:04.526Z,2.50
2022-09-30T20:40:33.877Z,2.53
2022-09-30T20:43:04.175Z,2.70
2022-09-30T20:45:32.045Z,2.70
2022-09-30T20:47:59.897Z,2.40
2022-09-30T20:50:36.942Z,2.50
2022-09-30T20:53:10.435Z,2.53
2022-09-30T20:55:39.841Z,2.73
2022-09-30T20:58:09.207Z,2.47
2022-09-30T21:00:39.735Z,2.73
2022-09-30T21:03:09.616Z,3.00
2022-09-30T21:05:38.861Z,2.83
2022-09-30T21:08:07.407Z,3.37
2022-09-30T21:10:36.675Z,3.30
2022-09-30T21:13:10.154Z,2.90
2022-09-30T21:15:37.934Z,3.13
2022-09-30T21:18:08.142Z,2.80
2022-09-30T21:20:36.256Z,2.90
2022-09-30T21:23:05.552Z,2.73
2022-09-30T21:25:35.256Z,2.53
2022-09-30T21:28:03.411Z,2.40
2022-09-30T21:30:31.315Z,2.70
2022-09-30T21:33:00.316Z,2.60
2022-09-30T21:35:28.126Z,2.37
2022-09-30T21:37:55.913Z,2.30
2022-09-30T21:40:25.113Z,2.87
2022-09-30T21:42:52.895Z,2.77
2022-09-30T21:45:20.725Z,3.03
2022-09-30T21:47:49.849Z,2.97
2022-09-30T21:50:17.815Z,3.43
2022-09-30T21:52:47.377Z,3.30
2022-09-30T21:55:15.258Z,3.43
2022-09-30T21:57:45.885Z,3.27
2022-09-30T22:00:14.210Z,3.10
2022-09-30T22:02:42.017Z,2.87
2022-09-30T22:05:10.873Z,3.20
2022-09-30T22:07:39.107Z,3.00
2022-09-30T22:10:09.058Z,2.70
2022-09-30T22:12:38.449Z,3.03
2022-09-30T22:15:08.764Z,2.80
2022-09-30T22:17:36.583Z,2.87
2022-09-30T22:20:04.995Z,2.57
2022-09-30T22:22:34.081Z,2.53
2022-09-30T22:25:02.506Z,2.53
2022-09-30T22:27:32.296Z,2.50
2022-09-30T22:30:00.366Z,2.67
2022-09-30T22:32:29.710Z,2.50
2022-09-30T22:35:14.967Z,3.00
2022-09-30T22:38:02.364Z,3.20
2022-09-30T22:40:30.135Z,3.00
2022-09-30T22:42:57.976Z,2.93
2022-09-30T22:45:25.890Z,3.30
2022-09-30T22:47:56.809Z,3.37
2022-09-30T22:50:26.083Z,1.93
2022-09-30T22:52:54.010Z,3.10
2022-09-30T22:55:22.262Z,3.23
2022-09-30T22:57:51.240Z,2.97
2022-09-30T23:00:19.241Z,3.30
2022-09-30T23:02:47.012Z,2.83
2022-09-30T23:05:16.206Z,2.80
2022-09-30T23:07:43.980Z,3.30
2022-09-30T23:10:11.847Z,2.90
2022-09-30T23:12:39.620Z,3.00
2022-09-30T23:15:08.551Z,2.90
2022-09-30T23:17:36.365Z,3.50
2022-09-30T23:20:04.430Z,2.90
2022-09-30T23:22:33.624Z,3.10
2022-09-30T23:25:02.682Z,3.20
2022-09-30T23:27:30.598Z,3.40
2022-09-30T23:29:58.356Z,3.27
2022-09-30T23:32:26.107Z,3.47
2022-09-30T23:34:55.133Z,3.03
2022-09-30T23:37:22.927Z,3.00
2022-09-30T23:39:52.398Z,3.10
2022-09-30T23:42:20.213Z,3.30
2022-09-30T23:44:47.994Z,3.37
2022-09-30T23:47:21.658Z,3.50
2022-09-30T23:49:50.446Z,3.03
2022-09-30T23:52:18.571Z,3.40
2022-09-30T23:54:46.467Z,3.07
2022-09-30T23:57:15.677Z,3.37
2022-09-30T23:59:43.438Z,3.53
